createdAt,value
2018-09-22T00:03:43.614Z,2.90
2018-09-22T00:07:39.310Z,2.47
2018-09-22T00:11:35.481Z,2.47
2018-09-22T00:15:32.110Z,1.90
2018-09-22T00:19:27.818Z,1.83
2018-09-22T00:23:23.457Z,1.37
2018-09-22T00:27:19.146Z,1.07
2018-09-22T00:31:14.995Z,1.73
2018-09-22T00:35:10.751Z,1.32
2018-09-22T00:39:09.169Z,1.20
2018-09-22T00:43:04.993Z,1.20
2018-09-22T00:47:00.617Z,1.47
2018-09-22T00:50:56.181Z,1.43
2018-09-22T00:54:51.778Z,2.00
2018-09-22T00:58:47.457Z,2.30
2018-09-22T01:02:43.044Z,2.33
2018-09-22T01:06:38.737Z,2.53
2018-09-22T01:10:34.480Z,2.67
2018-09-22T01:14:30.085Z,3.00
2018-09-22T01:18:25.700Z,2.33
2018-09-22T01:22:21.370Z,2.50
2018-09-22T01:26:18.430Z,1.87
2018-09-22T01:30:14.233Z,2.20
2018-09-22T01:34:09.959Z,2.30
2018-09-22T01:38:05.711Z,2.80
2018-09-22T01:42:01.376Z,2.53
2018-09-22T01:45:57.367Z,3.43
2018-09-22T01:49:53.114Z,3.07
2018-09-22T01:53:48.885Z,2.87
2018-09-22T01:57:44.459Z,2.83
2018-09-22T02:01:40.124Z,2.77
2018-09-22T02:05:35.708Z,2.60
2018-09-22T02:09:31.347Z,2.70
2018-09-22T02:13:26.971Z,3.20
2018-09-22T02:17:22.588Z,2.67
2018-09-22T02:21:18.122Z,3.00
2018-09-22T02:25:13.923Z,3.10
2018-09-22T02:29:09.857Z,3.02
2018-09-22T02:33:05.754Z,2.37
2018-09-22T02:37:01.495Z,1.83
2018-09-22T02:40:57.554Z,2.27
2018-09-22T02:44:53.162Z,3.23
2018-09-22T02:48:48.864Z,2.63
2018-09-22T02:52:44.433Z,4.83
2018-09-22T02:56:40.177Z,4.83
2018-09-22T03:00:36.154Z,2.80
2018-09-22T03:04:31.864Z,3.10
2018-09-22T03:08:27.517Z,2.97
2018-09-22T03:12:23.469Z,3.00
2018-09-22T03:16:19.226Z,3.12
2018-09-22T03:20:14.894Z,2.20
2018-09-22T03:24:10.681Z,2.83
2018-09-22T03:28:07.653Z,3.58
2018-09-22T03:32:03.865Z,2.45
2018-09-22T03:36:00.197Z,3.07
2018-09-22T03:39:56.021Z,3.83
2018-09-22T03:43:51.699Z,2.80
2018-09-22T03:47:47.345Z,3.03
2018-09-22T03:51:44.191Z,6.07
2018-09-22T03:55:39.910Z,8.10
2018-09-22T03:59:35.569Z,4.40
2018-09-22T04:03:31.130Z,6.58
2018-09-22T04:07:26.867Z,6.27
2018-09-22T04:11:22.498Z,2.83
2018-09-22T04:15:18.225Z,3.43
2018-09-22T04:19:13.954Z,3.20
2018-09-22T04:23:09.665Z,5.30
2018-09-22T04:27:05.319Z,4.30
2018-09-22T04:31:00.773Z,2.40
2018-09-22T04:34:56.470Z,2.52
2018-09-22T04:38:52.228Z,2.67
2018-09-22T04:42:49.136Z,4.37
2018-09-22T04:46:46.073Z,2.83
2018-09-22T04:50:41.830Z,2.93
2018-09-22T04:54:37.544Z,2.97
2018-09-22T04:58:33.763Z,2.33
2018-09-22T05:02:29.665Z,1.97
2018-09-22T05:06:25.185Z,2.03
2018-09-22T05:10:20.922Z,2.03
2018-09-22T05:14:16.732Z,2.70
2018-09-22T05:18:14.952Z,2.20
2018-09-22T05:22:10.854Z,2.20
2018-09-22T05:26:07.070Z,2.17
2018-09-22T05:30:03.801Z,2.27
2018-09-22T05:42:33.767Z,3.43
2018-09-22T05:46:29.582Z,4.93
2018-09-22T05:50:25.358Z,3.30
2018-09-22T05:54:20.924Z,3.47
2018-09-22T05:58:16.616Z,2.13
2018-09-22T06:02:12.223Z,2.30
2018-09-22T06:06:08.198Z,2.23
2018-09-22T06:10:03.975Z,2.00
2018-09-22T06:13:59.832Z,2.53
2018-09-22T06:17:55.898Z,2.53
2018-09-22T06:21:54.080Z,2.33
2018-09-22T06:25:50.173Z,1.80
2018-09-22T06:29:46.067Z,2.13
2018-09-22T06:33:41.930Z,2.80
2018-09-22T06:37:37.758Z,2.40
2018-09-22T06:41:33.587Z,3.70
2018-09-22T06:45:29.489Z,2.60
2018-09-22T06:49:25.397Z,2.00
2018-09-22T06:53:21.041Z,2.50
2018-09-22T06:57:16.718Z,1.87
2018-09-22T07:01:13.408Z,2.45
2018-09-22T07:05:09.362Z,2.70
2018-09-22T07:09:08.595Z,2.53
2018-09-22T07:13:04.570Z,4.60
2018-09-22T07:17:00.590Z,3.13
2018-09-22T07:21:02.086Z,3.05
2018-09-22T07:24:58.879Z,2.63
2018-09-22T07:28:54.602Z,2.70
2018-09-22T07:32:50.570Z,2.40
2018-09-22T07:36:46.268Z,2.50
2018-09-22T07:40:42.000Z,2.43
2018-09-22T07:44:37.771Z,3.00
2018-09-22T07:48:33.336Z,2.70
2018-09-22T07:52:29.212Z,2.40
2018-09-22T07:56:25.013Z,2.67
2018-09-22T08:00:22.393Z,2.90
2018-09-22T08:04:17.995Z,2.95
2018-09-22T08:08:13.634Z,2.65
2018-09-22T08:12:09.955Z,2.62
2018-09-22T08:16:05.799Z,2.35
2018-09-22T08:20:01.501Z,2.30
2018-09-22T08:23:57.201Z,2.57
2018-09-22T08:27:53.268Z,1.97
2018-09-22T08:31:48.877Z,2.10
2018-09-22T08:35:45.072Z,2.37
2018-09-22T08:39:41.857Z,2.00
2018-09-22T08:43:37.712Z,2.80
2018-09-22T08:47:33.856Z,1.60
2018-09-22T08:51:29.474Z,1.87
2018-09-22T08:55:25.126Z,2.87
2018-09-22T08:59:20.760Z,1.77
2018-09-22T09:03:16.374Z,2.02
2018-09-22T09:07:12.053Z,1.90
2018-09-22T09:11:08.075Z,1.87
2018-09-22T09:15:03.987Z,1.70
2018-09-22T09:18:59.755Z,1.77
2018-09-22T09:22:55.491Z,2.30
2018-09-22T09:26:51.253Z,1.47
2018-09-22T09:30:47.024Z,1.97
2018-09-22T09:34:42.845Z,1.80
2018-09-22T09:38:39.003Z,2.40
2018-09-22T09:42:39.002Z,1.75
2018-09-22T09:46:34.893Z,1.87
2018-09-22T09:50:30.376Z,1.53
2018-09-22T09:54:26.244Z,1.70
2018-09-22T09:58:22.235Z,2.10
2018-09-22T10:02:18.054Z,2.30
2018-09-22T10:06:13.972Z,1.60
2018-09-22T10:10:09.741Z,1.50
2018-09-22T10:14:05.402Z,2.40
2018-09-22T10:18:01.253Z,1.67
2018-09-22T10:21:56.995Z,2.00
2018-09-22T10:25:52.694Z,2.03
2018-09-22T10:29:48.407Z,2.03
2018-09-22T10:33:44.112Z,1.87
2018-09-22T10:37:40.868Z,2.00
2018-09-22T10:41:36.797Z,1.50
2018-09-22T10:45:33.225Z,1.83
2018-09-22T10:49:28.997Z,1.60
2018-09-22T10:53:24.679Z,1.83
2018-09-22T10:57:20.735Z,2.33
2018-09-22T11:01:16.416Z,1.50
2018-09-22T11:05:12.060Z,2.03
2018-09-22T11:09:09.175Z,1.40
2018-09-22T11:13:04.926Z,2.37
2018-09-22T11:17:00.345Z,1.50
2018-09-22T11:20:56.159Z,1.57
2018-09-22T11:24:54.193Z,1.90
2018-09-22T11:28:49.863Z,1.63
2018-09-22T11:32:46.108Z,2.03
2018-09-22T11:36:41.764Z,1.67
2018-09-22T11:40:37.508Z,1.63
2018-09-22T11:44:34.188Z,1.80
2018-09-22T11:48:29.579Z,2.63
2018-09-22T11:52:25.477Z,1.52
2018-09-22T11:56:21.565Z,1.70
2018-09-22T12:00:17.676Z,1.93
2018-09-22T12:04:13.710Z,2.60
2018-09-22T12:08:09.568Z,2.47
2018-09-22T12:12:09.189Z,2.53
2018-09-22T12:16:05.840Z,1.60
2018-09-22T12:20:01.623Z,2.00
2018-09-22T12:23:57.241Z,2.03
2018-09-22T12:27:52.942Z,1.83
2018-09-22T12:31:49.382Z,1.63
2018-09-22T12:35:45.210Z,1.80
2018-09-22T12:39:41.042Z,1.40
2018-09-22T12:43:36.942Z,1.90
2018-09-22T12:47:32.737Z,2.50
2018-09-22T12:51:28.581Z,1.95
2018-09-22T12:55:24.264Z,1.95
2018-09-22T12:59:20.476Z,1.65
2018-09-22T13:03:16.780Z,1.40
2018-09-22T13:07:12.437Z,2.10
2018-09-22T13:11:08.298Z,1.70
2018-09-22T13:15:04.540Z,2.20
2018-09-22T13:19:00.250Z,1.90
2018-09-22T13:22:56.034Z,2.20
2018-09-22T13:26:51.339Z,3.73
2018-09-22T13:30:47.207Z,2.37
2018-09-22T13:34:43.242Z,2.53
2018-09-22T13:38:39.008Z,1.80
2018-09-22T13:42:34.814Z,1.90
2018-09-22T13:46:30.610Z,1.60
2018-09-22T13:50:26.226Z,2.05
2018-09-22T13:54:22.351Z,2.72
2018-09-22T13:58:18.074Z,3.20
2018-09-22T14:02:13.764Z,2.00
2018-09-22T14:06:09.637Z,2.63
2018-09-22T14:10:05.443Z,2.50
2018-09-22T14:14:01.458Z,1.73
2018-09-22T14:17:57.248Z,1.63
2018-09-22T14:21:53.195Z,2.10
2018-09-22T14:25:49.739Z,1.83
2018-09-22T14:29:45.707Z,1.40
2018-09-22T14:33:41.395Z,1.30
2018-09-22T14:37:38.265Z,1.90
2018-09-22T14:41:33.878Z,1.00
2018-09-22T14:45:29.535Z,1.20
2018-09-22T14:49:25.321Z,0.93
2018-09-22T14:53:25.373Z,1.30
2018-09-22T14:57:21.121Z,1.07
2018-09-22T15:01:16.797Z,1.03
2018-09-22T15:05:12.290Z,1.30
2018-09-22T15:09:08.984Z,1.80
2018-09-22T15:13:04.717Z,1.17
2018-09-22T15:17:00.266Z,1.10
2018-09-22T15:20:55.989Z,1.20
2018-09-22T15:24:51.753Z,1.33
2018-09-22T15:28:47.912Z,1.30
2018-09-22T15:32:43.648Z,1.37
2018-09-22T15:36:39.331Z,1.87
2018-09-22T15:40:36.552Z,1.47
2018-09-22T15:44:32.329Z,1.37
2018-09-22T15:48:28.361Z,1.42
2018-09-22T15:52:23.884Z,1.10
2018-09-22T15:56:19.533Z,1.40
2018-09-22T16:00:15.873Z,1.30
2018-09-22T16:04:11.394Z,1.00
2018-09-22T16:08:07.068Z,2.13
2018-09-22T16:12:02.760Z,1.47
2018-09-22T16:15:58.613Z,1.63
2018-09-22T16:19:54.122Z,1.80
2018-09-22T16:23:49.804Z,2.10
2018-09-22T16:27:45.955Z,2.90
2018-09-22T16:31:42.150Z,1.20
2018-09-22T16:35:37.732Z,1.87
2018-09-22T16:39:33.318Z,3.10
2018-09-22T16:43:28.940Z,1.73
2018-09-22T16:47:25.153Z,2.35
2018-09-22T16:51:20.769Z,2.50
2018-09-22T16:55:16.302Z,2.73
2018-09-22T16:59:12.124Z,3.50
2018-09-22T17:03:07.685Z,3.37
2018-09-22T17:07:03.329Z,2.80
2018-09-22T17:10:59.103Z,2.70
2018-09-22T17:14:54.709Z,3.07
2018-09-22T17:18:50.375Z,2.83
2018-09-22T17:22:46.007Z,2.67
2018-09-22T17:26:41.943Z,2.35
2018-09-22T17:30:37.813Z,2.60
2018-09-22T17:34:33.482Z,2.80
2018-09-22T17:38:29.498Z,2.50
2018-09-22T17:42:25.181Z,2.30
2018-09-22T17:46:20.761Z,1.90
2018-09-22T17:50:16.537Z,2.50
2018-09-22T17:54:12.190Z,7.37
2018-09-22T17:58:07.672Z,1.70
2018-09-22T18:02:07.209Z,1.90
2018-09-22T18:06:04.124Z,1.90
2018-09-22T18:09:59.710Z,2.13
2018-09-22T18:13:55.337Z,2.60
2018-09-22T18:17:51.013Z,4.20
2018-09-22T18:21:46.700Z,1.90
2018-09-22T18:25:42.629Z,2.15
2018-09-22T18:29:38.206Z,2.80
2018-09-22T18:33:33.996Z,2.17
2018-09-22T18:37:31.150Z,3.00
2018-09-22T18:41:27.076Z,2.17
2018-09-22T18:45:23.007Z,2.73
2018-09-22T18:49:18.766Z,2.77
2018-09-22T18:53:14.797Z,2.87
2018-09-22T18:57:11.265Z,2.67
2018-09-22T19:01:06.932Z,2.37
2018-09-22T19:05:03.291Z,2.90
2018-09-22T19:08:59.475Z,2.77
2018-09-22T19:12:57.319Z,2.77
2018-09-22T19:17:01.664Z,3.60
2018-09-22T19:21:13.192Z,3.37
2018-09-22T19:25:13.546Z,3.37
2018-09-22T19:29:18.024Z,3.13
2018-09-22T19:33:20.779Z,3.13
2018-09-22T19:37:20.635Z,3.50
2018-09-22T19:41:23.675Z,3.50
2018-09-22T19:45:26.306Z,3.60
2018-09-22T19:49:35.410Z,3.33
2018-09-22T19:53:31.103Z,3.57
2018-09-22T19:57:27.171Z,3.23
2018-09-22T20:01:22.997Z,3.00
2018-09-22T20:05:19.191Z,2.93
2018-09-22T20:09:14.985Z,2.77
2018-09-22T20:13:10.762Z,2.73
2018-09-22T20:17:07.844Z,2.70
2018-09-22T20:21:03.322Z,6.30
2018-09-22T20:24:59.378Z,2.80
2018-09-22T20:28:55.050Z,2.50
2018-09-22T20:32:50.566Z,2.22
2018-09-22T20:36:46.375Z,2.33
2018-09-22T20:40:41.987Z,2.57
2018-09-22T20:44:37.783Z,2.43
2018-09-22T20:48:33.506Z,2.63
2018-09-22T20:52:29.385Z,2.17
2018-09-22T20:56:25.008Z,2.23
2018-09-22T21:00:21.304Z,2.33
2018-09-22T21:04:17.036Z,2.83
2018-09-22T21:08:12.988Z,2.30
2018-09-22T21:12:08.891Z,2.73
2018-09-22T21:16:04.619Z,3.13
2018-09-22T21:20:00.762Z,2.97
2018-09-22T21:23:56.550Z,3.17
2018-09-22T21:27:52.279Z,3.50
2018-09-22T21:31:47.990Z,3.42
2018-09-22T21:35:43.754Z,3.40
2018-09-22T21:39:40.171Z,2.83
2018-09-22T21:43:36.165Z,2.83
2018-09-22T21:47:31.967Z,3.00
2018-09-22T21:51:27.431Z,3.10
2018-09-22T21:55:23.053Z,2.87
2018-09-22T21:59:18.639Z,3.03
2018-09-22T22:03:14.270Z,3.20
2018-09-22T22:07:10.078Z,3.03
2018-09-22T22:11:05.855Z,3.47
2018-09-22T22:15:01.690Z,2.80
2018-09-22T22:18:57.509Z,2.80
2018-09-22T22:22:53.275Z,2.80
2018-09-22T22:26:48.865Z,2.53
2018-09-22T22:30:44.478Z,3.00
2018-09-22T22:34:41.170Z,3.17
2018-09-22T22:38:36.787Z,3.30
2018-09-22T22:42:32.296Z,3.43
2018-09-22T22:46:27.904Z,3.33
2018-09-22T22:50:23.521Z,3.57
2018-09-22T22:54:19.268Z,3.30
2018-09-22T22:58:14.882Z,4.30
2018-09-22T23:02:10.691Z,4.37
2018-09-22T23:06:06.510Z,8.73
2018-09-22T23:10:02.295Z,4.53
2018-09-22T23:13:58.083Z,5.30
2018-09-22T23:17:53.817Z,4.97
2018-09-22T23:21:49.663Z,5.17
2018-09-22T23:25:45.355Z,6.03
2018-09-22T23:29:41.158Z,5.67
2018-09-22T23:33:36.821Z,6.50
2018-09-22T23:37:32.622Z,6.67
2018-09-22T23:41:28.414Z,7.20
2018-09-22T23:45:24.214Z,7.37
2018-09-22T23:49:20.865Z,7.20
2018-09-22T23:53:16.832Z,7.20
2018-09-22T23:57:12.532Z,6.75
